• Join FlightAware (Why Join?)
  • Login
  • US Flag 
Rudolph Flight #1: Scheduled 
08:52PM EST


 

Airport Tracker/Info


-or-


 

Live Flight TrackerFlight Track Log ✈ JZA8121 ✈ 03-May-2013 ✈ CYVR - KPDX

Flight Track Log - Related Links

Times and Time Zones

All times are in EDT time to prevent confusion due to time zone crossing. See the JZA8121 flight status page for this flight to view local times or setup timezone preferences in your user account.

Time Position Orientation Groundspeed Altitude Reporting Facility
EDT Latitude Longitude Course Direction KTS MPH feet Rate Location/Type
11:57AM 49.1667 -123.1833 156° South 120 138 1,100  Level Vancouver Center
11:58AM 49.1333 -123.2333 224° Southwest 160 184 2,100 1,080 Climbing Vancouver Center
11:59AM 49.0833 -123.2667 204° Southwest 170 196 3,300 960 Climbing Vancouver Center
12:00PM 49.0333 -123.2333 156° South 180 207 4,100 660 Climbing Vancouver Center
12:01PM 48.8106 -123.0053 162° South  Level FlightAware Approximate
12:01PM 48.9833 -123.1833 147° Southeast 210 242 4,700  Level Vancouver Center
12:02PM 48.7528 -122.9796 156° South  Level FlightAware Approximate
12:02PM 48.9333 -123.1667 168° South 210 242 5,500  Level Vancouver Center
12:03PM 48.8667 -123.1333 162° South 210 242 6,300 600 Climbing Vancouver Center
12:04PM 48.8167 -123.1167 168° South 220 253 6,800 780 Climbing Vancouver Center
12:05PM 48.7500 -123.0667 154° Southeast 230 265 7,900 1,080 Climbing Vancouver Center
12:06PM 48.7000 -123.0333 156° South 210 242 9,000 1,020 Climbing Vancouver Center
12:07PM 48.6500 -123.0167 168° South 210 242 10,000 1,080 Climbing Vancouver Center
12:08PM 48.6100 -122.9869 154° Southeast 218 251 11,100 1,020 Climbing Seattle Center
12:09PM 48.5544 -122.9533 158° South 218 251 12,000 960 Climbing Seattle Center
12:10PM 48.4975 -122.9203 159° South 221 254 13,100 900 Climbing Seattle Center
12:11PM 48.4400 -122.8867 159° South 222 255 13,900 840 Climbing Seattle Center
12:12PM 48.3797 -122.8503 158° South 233 268 14,800 780 Climbing Seattle Center
12:13PM 48.3175 -122.8139 159° South 241 277 15,500 720 Climbing Seattle Center
12:14PM 48.2553 -122.7775 159° South 242 278 16,300 780 Climbing Seattle Center
12:15PM 48.1917 -122.7406 159° South 249 287 17,200 780 Climbing Seattle Center
12:16PM 48.1264 -122.7036 159° South 252 290 18,000 660 Climbing Seattle Center
12:17PM 48.0497 -122.6583 158° South 250 288 18,600 540 Climbing Seattle Center
12:18PM 47.9833 -122.6211 159° South 253 291 19,200 540 Climbing Seattle Center
12:19PM 47.9167 -122.5828 159° South 259 298 19,800 540 Climbing Seattle Center
12:20PM 47.8483 -122.5431 159° South 265 305 20,400 540 Climbing Seattle Center
12:21PM 47.7803 -122.5042 159° South 265 305 21,000 540 Climbing Seattle Center
12:22PM 47.7111 -122.4653 159° South 268 308 21,600 540 Climbing Seattle Center
12:23PM 47.6372 -122.4233 159° South 270 311 22,100 540 Climbing Seattle Center
12:24PM 47.5642 -122.3817 159° South 269 310 22,800 720 Climbing Seattle Center
12:25PM 47.4961 -122.3436 159° South 267 307 23,600 600 Climbing Seattle Center
12:26PM 47.4314 -122.3086 160° South 255 293 24,100 540 Climbing Seattle Center
12:27PM 47.3611 -122.3078 180° South 256 295 24,700 420 Climbing Seattle Center
12:28PM 47.2894 -122.3100 181° South 259 298 25,000 120 Climbing Seattle Center
12:29PM 47.2131 -122.3114 181° South 275 316 25,000  Level Seattle Center
12:30PM 47.1175 -122.3100 179° South 287 330 25,000  Level Seattle Center
12:31PM 47.0364 -122.3097 180° South 293 337 25,000  Level Seattle Center
12:32PM 46.9553 -122.3100 180° South 295 339 25,000 -60 Level Seattle Center
12:33PM 46.8733 -122.3100 180° South 297 342 24,900 -900 Descending Seattle Center
12:34PM 46.7853 -122.3114 181° South 318 366 23,200 -1,680 Descending Seattle Center
12:35PM 46.6908 -122.3097 179° South 341 392 21,500 -1,680 Descending Seattle Center
12:36PM 46.5978 -122.3103 180° South 339 390 19,800 -1,740 Descending Seattle Center
12:37PM 46.5042 -122.3094 180° South 340 391 18,000 -1,620 Descending Seattle Center
12:37PM 46.4622 -122.3122 183° South 337 388 17,700 -1,380 Descending Seattle Center
12:38PM 46.4358 -122.3108 178° South 334 384 17,200 -1,920 Descending Seattle Center
12:38PM 46.3950 -122.3106 180° South 333 383 16,300 -1,980 Descending Seattle Center
12:39PM 46.3319 -122.3106 180° South 329 379 15,000 -1,800 Descending Seattle Center
12:39PM 46.3047 -122.3100 179° South 328 377 14,500 -1,680 Descending Seattle Center
12:40PM 46.2419 -122.3172 185° South 322 371 13,300 -1,680 Descending Seattle Center
12:40PM 46.2183 -122.3272 196° South 318 366 12,800 -1,800 Descending Seattle Center
12:41PM 46.1683 -122.3606 205° Southwest 315 362 11,700 -1,620 Descending Seattle Center
12:41PM 46.1458 -122.3733 201° Southwest 306 352 11,200 -1,320 Descending Seattle Center
12:42PM 46.0897 -122.3900 192° South 288 331 10,400 -1,200 Descending Seattle Center
12:42PM 46.0678 -122.3928 185° South 285 328 10,000 -1,080 Descending Seattle Center
12:43PM 46.0000 -122.3964 182° South 278 320 9,200 -1,020 Descending Seattle Center
12:43PM 45.9892 -122.3967 181° South 281 323 9,000 -1,020 Descending Seattle Center
12:44PM 45.9233 -122.4033 184° South 281 323 8,200 -1,020 Descending Seattle Center
12:44PM 45.9119 -122.4033 180° South 277 319 8,000 -1,020 Descending Seattle Center
12:45PM 45.8447 -122.4111 185° South 279 321 7,200 -1,200 Descending Seattle Center
12:45PM 45.8200 -122.4156 187° South 276 318 6,800 -1,020 Descending Seattle Center
12:46PM 45.7706 -122.4200 184° South 270 311 6,200 -840 Descending Seattle Center
12:46PM 45.7481 -122.4222 184° South 264 304 6,000 -120 Descending Seattle Center
12:47PM 45.7044 -122.4258 183° South 219 252 6,100 -240 Climbing Seattle Center
12:47PM 45.6847 -122.4294 187° South 239 275 5,800 -1,140 Descending Seattle Center
12:48PM 45.6478 -122.4244 175° South 219 252 5,100 -1,380 Descending Seattle Center
12:48PM 45.6233 -122.4197 172° South 224 258 4,400 -1,560 Descending Seattle Center
12:49PM 45.5789 -122.4158 176° South 233 268 3,400 -1,620 Descending Seattle Center
12:49PM 45.5644 -122.4342 222° Southwest 233 268 2,800 -1,140 Descending Seattle Center
12:50PM 45.5525 -122.4883 253° West 183 211 2,300 -780 Descending Seattle Center